sensor_id;sensor_type;location;lat;lon;timestamp;P1;durP1;ratioP1;P2;durP2;ratioP2
9224;SDS011;4647;48.072;11.616;2023-07-20T00:00:16;4.67;;;3.50;;
9224;SDS011;4647;48.072;11.616;2023-07-20T00:02:45;6.13;;;3.47;;
9224;SDS011;4647;48.072;11.616;2023-07-20T00:05:13;6.67;;;3.63;;
9224;SDS011;4647;48.072;11.616;2023-07-20T00:07:43;5.97;;;3.80;;
9224;SDS011;4647;48.072;11.616;2023-07-20T00:10:14;7.37;;;3.73;;
9224;SDS011;4647;48.072;11.616;2023-07-20T00:12:43;5.53;;;3.40;;
9224;SDS011;4647;48.072;11.616;2023-07-20T00:15:12;3.97;;;3.20;;
9224;SDS011;4647;48.072;11.616;2023-07-20T00:17:41;4.17;;;3.07;;
9224;SDS011;4647;48.072;11.616;2023-07-20T00:20:10;4.90;;;3.73;;
9224;SDS011;4647;48.072;11.616;2023-07-20T00:22:39;6.70;;;3.70;;
9224;SDS011;4647;48.072;11.616;2023-07-20T00:25:08;7.03;;;3.77;;
9224;SDS011;4647;48.072;11.616;2023-07-20T00:27:39;6.53;;;3.70;;
9224;SDS011;4647;48.072;11.616;2023-07-20T00:30:08;4.97;;;3.50;;
9224;SDS011;4647;48.072;11.616;2023-07-20T00:32:38;6.80;;;3.80;;
9224;SDS011;4647;48.072;11.616;2023-07-20T00:35:06;6.87;;;4.10;;
9224;SDS011;4647;48.072;11.616;2023-07-20T00:37:35;5.43;;;3.80;;
9224;SDS011;4647;48.072;11.616;2023-07-20T00:40:05;6.47;;;3.73;;
9224;SDS011;4647;48.072;11.616;2023-07-20T00:42:34;5.23;;;3.70;;
9224;SDS011;4647;48.072;11.616;2023-07-20T00:45:06;7.23;;;3.80;;
9224;SDS011;4647;48.072;11.616;2023-07-20T00:47:35;7.37;;;3.90;;
9224;SDS011;4647;48.072;11.616;2023-07-20T00:50:05;8.07;;;3.70;;
9224;SDS011;4647;48.072;11.616;2023-07-20T00:52:34;5.07;;;3.93;;
9224;SDS011;4647;48.072;11.616;2023-07-20T00:55:04;8.83;;;4.17;;
9224;SDS011;4647;48.072;11.616;2023-07-20T00:57:34;4.80;;;3.73;;
9224;SDS011;4647;48.072;11.616;2023-07-20T01:00:06;5.53;;;3.53;;
9224;SDS011;4647;48.072;11.616;2023-07-20T01:02:35;7.27;;;3.43;;
9224;SDS011;4647;48.072;11.616;2023-07-20T01:05:05;7.87;;;3.60;;
9224;SDS011;4647;48.072;11.616;2023-07-20T01:07:35;4.83;;;3.27;;
9224;SDS011;4647;48.072;11.616;2023-07-20T01:10:09;5.47;;;3.33;;
9224;SDS011;4647;48.072;11.616;2023-07-20T01:12:42;9.23;;;3.40;;
9224;SDS011;4647;48.072;11.616;2023-07-20T01:15:17;5.20;;;3.53;;
9224;SDS011;4647;48.072;11.616;2023-07-20T01:17:45;5.67;;;3.70;;
9224;SDS011;4647;48.072;11.616;2023-07-20T01:20:14;6.03;;;3.80;;
9224;SDS011;4647;48.072;11.616;2023-07-20T01:28:57;6.10;;;3.67;;
9224;SDS011;4647;48.072;11.616;2023-07-20T01:31:51;7.67;;;3.80;;
9224;SDS011;4647;48.072;11.616;2023-07-20T01:34:21;10.63;;;3.40;;
9224;SDS011;4647;48.072;11.616;2023-07-20T01:36:52;3.63;;;3.30;;
9224;SDS011;4647;48.072;11.616;2023-07-20T01:39:23;6.40;;;3.87;;
9224;SDS011;4647;48.072;11.616;2023-07-20T01:41:52;8.10;;;3.80;;
9224;SDS011;4647;48.072;11.616;2023-07-20T01:44:21;8.10;;;3.70;;
9224;SDS011;4647;48.072;11.616;2023-07-20T01:46:52;7.27;;;3.83;;
9224;SDS011;4647;48.072;11.616;2023-07-20T01:49:20;7.27;;;3.47;;
9224;SDS011;4647;48.072;11.616;2023-07-20T01:51:49;5.73;;;3.37;;
9224;SDS011;4647;48.072;11.616;2023-07-20T01:54:17;4.73;;;3.33;;
9224;SDS011;4647;48.072;11.616;2023-07-20T01:56:46;5.93;;;3.40;;
9224;SDS011;4647;48.072;11.616;2023-07-20T01:59:15;8.57;;;3.43;;
9224;SDS011;4647;48.072;11.616;2023-07-20T02:01:43;7.00;;;3.43;;
9224;SDS011;4647;48.072;11.616;2023-07-20T02:04:14;5.40;;;3.27;;
9224;SDS011;4647;48.072;11.616;2023-07-20T02:06:42;5.03;;;3.53;;
9224;SDS011;4647;48.072;11.616;2023-07-20T02:09:11;4.80;;;3.40;;
9224;SDS011;4647;48.072;11.616;2023-07-20T02:11:39;7.27;;;3.40;;
9224;SDS011;4647;48.072;11.616;2023-07-20T02:14:08;6.43;;;3.50;;
9224;SDS011;4647;48.072;11.616;2023-07-20T02:16:36;5.20;;;3.50;;
9224;SDS011;4647;48.072;11.616;2023-07-20T02:19:05;7.70;;;3.53;;
9224;SDS011;4647;48.072;11.616;2023-07-20T02:21:36;6.13;;;3.57;;
9224;SDS011;4647;48.072;11.616;2023-07-20T02:24:04;5.63;;;3.20;;
9224;SDS011;4647;48.072;11.616;2023-07-20T02:26:33;7.03;;;3.50;;
9224;SDS011;4647;48.072;11.616;2023-07-20T02:29:01;5.13;;;3.33;;
9224;SDS011;4647;48.072;11.616;2023-07-20T02:31:30;6.20;;;3.87;;
9224;SDS011;4647;48.072;11.616;2023-07-20T02:33:59;5.17;;;3.40;;
9224;SDS011;4647;48.072;11.616;2023-07-20T02:36:27;11.33;;;3.77;;
9224;SDS011;4647;48.072;11.616;2023-07-20T02:39:00;7.47;;;3.13;;
9224;SDS011;4647;48.072;11.616;2023-07-20T02:41:29;6.03;;;3.40;;
9224;SDS011;4647;48.072;11.616;2023-07-20T02:43:58;6.00;;;3.73;;
9224;SDS011;4647;48.072;11.616;2023-07-20T02:46:27;6.90;;;3.00;;
9224;SDS011;4647;48.072;11.616;2023-07-20T02:48:56;8.87;;;3.40;;
9224;SDS011;4647;48.072;11.616;2023-07-20T02:51:24;4.77;;;3.20;;
9224;SDS011;4647;48.072;11.616;2023-07-20T02:53:52;5.70;;;3.03;;
9224;SDS011;4647;48.072;11.616;2023-07-20T02:56:24;5.63;;;3.30;;
9224;SDS011;4647;48.072;11.616;2023-07-20T02:58:52;7.30;;;3.00;;
9224;SDS011;4647;48.072;11.616;2023-07-20T03:01:20;6.87;;;3.57;;
9224;SDS011;4647;48.072;11.616;2023-07-20T03:03:49;9.17;;;2.70;;
9224;SDS011;4647;48.072;11.616;2023-07-20T03:06:17;7.63;;;3.00;;
9224;SDS011;4647;48.072;11.616;2023-07-20T03:08:46;6.80;;;3.57;;
9224;SDS011;4647;48.072;11.616;2023-07-20T03:11:17;7.23;;;3.40;;
9224;SDS011;4647;48.072;11.616;2023-07-20T03:13:48;3.97;;;3.10;;
9224;SDS011;4647;48.072;11.616;2023-07-20T03:16:18;8.97;;;3.50;;
9224;SDS011;4647;48.072;11.616;2023-07-20T03:18:47;10.37;;;3.70;;
9224;SDS011;4647;48.072;11.616;2023-07-20T03:21:16;6.97;;;3.57;;
9224;SDS011;4647;48.072;11.616;2023-07-20T03:23:44;7.50;;;3.37;;
9224;SDS011;4647;48.072;11.616;2023-07-20T03:26:13;9.17;;;3.50;;
9224;SDS011;4647;48.072;11.616;2023-07-20T03:28:41;7.00;;;3.40;;
9224;SDS011;4647;48.072;11.616;2023-07-20T03:31:12;10.07;;;3.30;;
9224;SDS011;4647;48.072;11.616;2023-07-20T03:33:42;5.57;;;3.30;;
9224;SDS011;4647;48.072;11.616;2023-07-20T03:36:10;5.07;;;3.37;;
9224;SDS011;4647;48.072;11.616;2023-07-20T03:38:39;4.90;;;3.40;;
9224;SDS011;4647;48.072;11.616;2023-07-20T03:41:07;5.90;;;3.00;;
9224;SDS011;4647;48.072;11.616;2023-07-20T03:43:37;9.37;;;3.27;;
9224;SDS011;4647;48.072;11.616;2023-07-20T03:46:05;5.23;;;3.10;;
9224;SDS011;4647;48.072;11.616;2023-07-20T03:48:36;5.47;;;3.20;;
9224;SDS011;4647;48.072;11.616;2023-07-20T03:51:05;6.97;;;3.00;;
9224;SDS011;4647;48.072;11.616;2023-07-20T03:53:33;5.20;;;3.03;;
9224;SDS011;4647;48.072;11.616;2023-07-20T03:56:02;4.63;;;3.00;;
9224;SDS011;4647;48.072;11.616;2023-07-20T03:58:31;5.10;;;3.40;;
9224;SDS011;4647;48.072;11.616;2023-07-20T04:01:00;7.23;;;3.10;;
9224;SDS011;4647;48.072;11.616;2023-07-20T04:03:28;6.03;;;3.27;;
9224;SDS011;4647;48.072;11.616;2023-07-20T04:05:59;5.67;;;3.20;;
9224;SDS011;4647;48.072;11.616;2023-07-20T04:08:28;4.33;;;3.20;;
9224;SDS011;4647;48.072;11.616;2023-07-20T04:10:56;5.67;;;3.20;;
9224;SDS011;4647;48.072;11.616;2023-07-20T04:13:25;6.87;;;3.33;;
9224;SDS011;4647;48.072;11.616;2023-07-20T04:15:53;9.90;;;3.43;;
9224;SDS011;4647;48.072;11.616;2023-07-20T04:18:22;7.03;;;3.57;;
9224;SDS011;4647;48.072;11.616;2023-07-20T04:20:51;7.40;;;3.27;;
9224;SDS011;4647;48.072;11.616;2023-07-20T04:23:22;9.30;;;3.40;;
9224;SDS011;4647;48.072;11.616;2023-07-20T04:25:50;7.83;;;3.27;;
9224;SDS011;4647;48.072;11.616;2023-07-20T04:28:19;4.87;;;3.53;;
9224;SDS011;4647;48.072;11.616;2023-07-20T04:30:48;8.87;;;5.40;;
9224;SDS011;4647;48.072;11.616;2023-07-20T04:33:18;7.07;;;3.87;;
9224;SDS011;4647;48.072;11.616;2023-07-20T04:35:47;8.07;;;4.20;;
9224;SDS011;4647;48.072;11.616;2023-07-20T04:38:17;10.40;;;4.23;;
9224;SDS011;4647;48.072;11.616;2023-07-20T04:40:49;10.87;;;5.47;;
9224;SDS011;4647;48.072;11.616;2023-07-20T04:43:18;18.63;;;8.37;;
9224;SDS011;4647;48.072;11.616;2023-07-20T04:45:48;15.83;;;6.90;;
9224;SDS011;4647;48.072;11.616;2023-07-20T04:48:16;10.83;;;4.27;;
9224;SDS011;4647;48.072;11.616;2023-07-20T04:50:45;7.53;;;3.80;;
9224;SDS011;4647;48.072;11.616;2023-07-20T04:53:13;6.93;;;3.33;;
9224;SDS011;4647;48.072;11.616;2023-07-20T04:55:49;4.97;;;3.30;;
9224;SDS011;4647;48.072;11.616;2023-07-20T04:58:19;6.30;;;3.00;;
9224;SDS011;4647;48.072;11.616;2023-07-20T05:00:49;4.80;;;3.10;;
9224;SDS011;4647;48.072;11.616;2023-07-20T05:03:19;4.87;;;3.30;;
9224;SDS011;4647;48.072;11.616;2023-07-20T05:05:47;7.90;;;3.23;;
9224;SDS011;4647;48.072;11.616;2023-07-20T05:08:16;6.23;;;3.00;;
9224;SDS011;4647;48.072;11.616;2023-07-20T05:10:44;5.20;;;3.40;;
9224;SDS011;4647;48.072;11.616;2023-07-20T05:13:15;6.70;;;3.00;;
9224;SDS011;4647;48.072;11.616;2023-07-20T05:15:44;5.00;;;3.30;;
9224;SDS011;4647;48.072;11.616;2023-07-20T05:18:12;5.83;;;3.00;;
9224;SDS011;4647;48.072;11.616;2023-07-20T05:20:45;6.13;;;2.90;;
9224;SDS011;4647;48.072;11.616;2023-07-20T05:23:14;5.40;;;2.97;;
9224;SDS011;4647;48.072;11.616;2023-07-20T05:25:42;7.13;;;3.10;;
9224;SDS011;4647;48.072;11.616;2023-07-20T05:28:11;8.93;;;3.17;;
9224;SDS011;4647;48.072;11.616;2023-07-20T05:30:42;5.27;;;3.10;;
9224;SDS011;4647;48.072;11.616;2023-07-20T05:33:10;7.20;;;2.83;;
9224;SDS011;4647;48.072;11.616;2023-07-20T05:35:39;4.50;;;3.00;;
9224;SDS011;4647;48.072;11.616;2023-07-20T05:38:07;4.67;;;2.90;;
9224;SDS011;4647;48.072;11.616;2023-07-20T05:40:37;7.60;;;3.07;;
9224;SDS011;4647;48.072;11.616;2023-07-20T05:43:06;6.27;;;2.80;;
9224;SDS011;4647;48.072;11.616;2023-07-20T05:45:35;6.10;;;3.10;;
9224;SDS011;4647;48.072;11.616;2023-07-20T05:48:06;3.77;;;3.20;;
9224;SDS011;4647;48.072;11.616;2023-07-20T05:50:36;7.67;;;3.40;;
9224;SDS011;4647;48.072;11.616;2023-07-20T05:53:04;7.27;;;3.60;;
9224;SDS011;4647;48.072;11.616;2023-07-20T05:55:33;6.77;;;3.00;;
9224;SDS011;4647;48.072;11.616;2023-07-20T05:58:01;4.37;;;2.80;;
9224;SDS011;4647;48.072;11.616;2023-07-20T06:00:30;5.13;;;3.10;;
9224;SDS011;4647;48.072;11.616;2023-07-20T06:02:58;4.13;;;2.70;;
9224;SDS011;4647;48.072;11.616;2023-07-20T06:05:29;5.37;;;3.23;;
9224;SDS011;4647;48.072;11.616;2023-07-20T06:07:58;7.30;;;3.10;;
9224;SDS011;4647;48.072;11.616;2023-07-20T06:10:26;7.63;;;2.93;;
9224;SDS011;4647;48.072;11.616;2023-07-20T06:12:55;5.80;;;3.20;;
9224;SDS011;4647;48.072;11.616;2023-07-20T06:15:24;5.57;;;3.60;;
9224;SDS011;4647;48.072;11.616;2023-07-20T06:17:54;6.37;;;3.80;;
9224;SDS011;4647;48.072;11.616;2023-07-20T06:20:23;7.97;;;4.13;;
9224;SDS011;4647;48.072;11.616;2023-07-20T06:22:54;7.63;;;4.50;;
9224;SDS011;4647;48.072;11.616;2023-07-20T06:25:23;8.70;;;3.63;;
9224;SDS011;4647;48.072;11.616;2023-07-20T06:27:51;7.47;;;3.20;;
9224;SDS011;4647;48.072;11.616;2023-07-20T06:30:20;6.67;;;3.17;;
9224;SDS011;4647;48.072;11.616;2023-07-20T06:32:48;7.07;;;2.90;;
9224;SDS011;4647;48.072;11.616;2023-07-20T06:35:17;7.93;;;3.37;;
9224;SDS011;4647;48.072;11.616;2023-07-20T06:37:45;5.37;;;2.90;;
9224;SDS011;4647;48.072;11.616;2023-07-20T06:40:17;4.77;;;3.20;;
9224;SDS011;4647;48.072;11.616;2023-07-20T06:42:45;4.07;;;2.70;;
9224;SDS011;4647;48.072;11.616;2023-07-20T06:45:14;3.90;;;2.97;;
9224;SDS011;4647;48.072;11.616;2023-07-20T06:47:42;4.87;;;3.33;;
9224;SDS011;4647;48.072;11.616;2023-07-20T06:50:11;3.57;;;3.00;;
9224;SDS011;4647;48.072;11.616;2023-07-20T06:52:40;5.73;;;2.90;;
9224;SDS011;4647;48.072;11.616;2023-07-20T06:55:09;4.97;;;3.17;;
9224;SDS011;4647;48.072;11.616;2023-07-20T06:57:40;5.53;;;3.60;;
9224;SDS011;4647;48.072;11.616;2023-07-20T07:00:09;4.83;;;3.27;;
9224;SDS011;4647;48.072;11.616;2023-07-20T07:02:38;6.43;;;3.03;;
9224;SDS011;4647;48.072;11.616;2023-07-20T07:05:07;4.27;;;2.83;;
9224;SDS011;4647;48.072;11.616;2023-07-20T07:07:36;6.63;;;2.83;;
9224;SDS011;4647;48.072;11.616;2023-07-20T07:10:05;5.87;;;3.00;;
9224;SDS011;4647;48.072;11.616;2023-07-20T07:12:34;5.27;;;3.10;;
9224;SDS011;4647;48.072;11.616;2023-07-20T07:15:06;3.73;;;2.97;;
9224;SDS011;4647;48.072;11.616;2023-07-20T07:17:36;6.70;;;3.20;;
9224;SDS011;4647;48.072;11.616;2023-07-20T07:20:05;3.23;;;2.60;;
9224;SDS011;4647;48.072;11.616;2023-07-20T07:22:37;5.80;;;3.27;;
9224;SDS011;4647;48.072;11.616;2023-07-20T07:25:09;4.57;;;2.90;;
9224;SDS011;4647;48.072;11.616;2023-07-20T07:27:38;5.60;;;3.10;;
9224;SDS011;4647;48.072;11.616;2023-07-20T07:30:10;7.37;;;3.37;;
9224;SDS011;4647;48.072;11.616;2023-07-20T07:32:39;4.77;;;3.17;;
9224;SDS011;4647;48.072;11.616;2023-07-20T07:35:08;4.60;;;3.17;;
9224;SDS011;4647;48.072;11.616;2023-07-20T07:37:36;5.07;;;2.87;;
9224;SDS011;4647;48.072;11.616;2023-07-20T07:40:05;6.60;;;3.10;;
9224;SDS011;4647;48.072;11.616;2023-07-20T07:42:35;5.33;;;3.10;;
9224;SDS011;4647;48.072;11.616;2023-07-20T07:45:04;6.07;;;3.00;;
9224;SDS011;4647;48.072;11.616;2023-07-20T07:47:39;3.97;;;3.23;;
9224;SDS011;4647;48.072;11.616;2023-07-20T07:50:08;3.17;;;2.73;;
9224;SDS011;4647;48.072;11.616;2023-07-20T07:52:38;5.30;;;2.90;;
9224;SDS011;4647;48.072;11.616;2023-07-20T07:55:06;9.77;;;3.17;;
9224;SDS011;4647;48.072;11.616;2023-07-20T07:57:35;6.20;;;3.00;;
9224;SDS011;4647;48.072;11.616;2023-07-20T08:00:04;6.13;;;3.37;;
9224;SDS011;4647;48.072;11.616;2023-07-20T08:02:39;4.20;;;2.93;;
9224;SDS011;4647;48.072;11.616;2023-07-20T08:05:08;4.20;;;3.30;;
9224;SDS011;4647;48.072;11.616;2023-07-20T08:07:37;7.17;;;3.07;;
9224;SDS011;4647;48.072;11.616;2023-07-20T08:10:07;7.23;;;3.60;;
9224;SDS011;4647;48.072;11.616;2023-07-20T08:12:36;4.97;;;3.23;;
9224;SDS011;4647;48.072;11.616;2023-07-20T08:15:05;5.63;;;3.27;;
9224;SDS011;4647;48.072;11.616;2023-07-20T08:17:34;4.70;;;3.17;;
9224;SDS011;4647;48.072;11.616;2023-07-20T08:20:06;5.07;;;3.00;;
9224;SDS011;4647;48.072;11.616;2023-07-20T08:22:37;7.37;;;3.00;;
9224;SDS011;4647;48.072;11.616;2023-07-20T08:25:05;5.53;;;3.03;;
9224;SDS011;4647;48.072;11.616;2023-07-20T08:27:34;4.27;;;3.00;;
9224;SDS011;4647;48.072;11.616;2023-07-20T08:30:04;4.60;;;3.03;;
9224;SDS011;4647;48.072;11.616;2023-07-20T08:32:33;9.73;;;4.57;;
9224;SDS011;4647;48.072;11.616;2023-07-20T08:35:01;4.73;;;3.10;;
9224;SDS011;4647;48.072;11.616;2023-07-20T08:37:34;5.30;;;3.20;;
9224;SDS011;4647;48.072;11.616;2023-07-20T08:40:04;4.23;;;2.90;;
9224;SDS011;4647;48.072;11.616;2023-07-20T08:42:34;4.17;;;2.73;;
9224;SDS011;4647;48.072;11.616;2023-07-20T08:45:03;4.50;;;2.70;;
9224;SDS011;4647;48.072;11.616;2023-07-20T08:47:36;3.17;;;2.70;;
9224;SDS011;4647;48.072;11.616;2023-07-20T08:50:09;4.93;;;2.87;;
9224;SDS011;4647;48.072;11.616;2023-07-20T08:52:39;5.87;;;2.90;;
9224;SDS011;4647;48.072;11.616;2023-07-20T08:55:08;4.20;;;3.00;;
9224;SDS011;4647;48.072;11.616;2023-07-20T08:57:37;7.10;;;3.13;;
9224;SDS011;4647;48.072;11.616;2023-07-20T09:00:09;4.67;;;2.63;;
9224;SDS011;4647;48.072;11.616;2023-07-20T09:02:42;5.30;;;2.80;;
9224;SDS011;4647;48.072;11.616;2023-07-20T09:05:16;3.27;;;2.53;;
9224;SDS011;4647;48.072;11.616;2023-07-20T09:07:45;4.93;;;2.83;;
9224;SDS011;4647;48.072;11.616;2023-07-20T09:10:14;6.00;;;2.97;;
9224;SDS011;4647;48.072;11.616;2023-07-20T09:12:43;6.77;;;2.80;;
9224;SDS011;4647;48.072;11.616;2023-07-20T09:15:12;4.97;;;2.63;;
9224;SDS011;4647;48.072;11.616;2023-07-20T09:17:45;4.60;;;2.80;;
9224;SDS011;4647;48.072;11.616;2023-07-20T09:20:17;2.67;;;2.43;;
9224;SDS011;4647;48.072;11.616;2023-07-20T09:22:46;3.73;;;2.40;;
9224;SDS011;4647;48.072;11.616;2023-07-20T09:25:15;3.97;;;2.77;;
9224;SDS011;4647;48.072;11.616;2023-07-20T09:27:45;3.87;;;2.70;;
9224;SDS011;4647;48.072;11.616;2023-07-20T09:30:15;5.10;;;2.63;;
9224;SDS011;4647;48.072;11.616;2023-07-20T09:32:45;4.73;;;2.77;;
9224;SDS011;4647;48.072;11.616;2023-07-20T09:35:19;4.73;;;2.70;;
9224;SDS011;4647;48.072;11.616;2023-07-20T09:37:49;2.97;;;2.60;;
9224;SDS011;4647;48.072;11.616;2023-07-20T09:40:20;5.17;;;3.30;;
9224;SDS011;4647;48.072;11.616;2023-07-20T09:42:49;3.93;;;2.77;;
9224;SDS011;4647;48.072;11.616;2023-07-20T09:45:27;5.57;;;2.47;;
9224;SDS011;4647;48.072;11.616;2023-07-20T09:48:02;6.80;;;2.73;;
9224;SDS011;4647;48.072;11.616;2023-07-20T09:50:34;4.37;;;2.40;;
9224;SDS011;4647;48.072;11.616;2023-07-20T09:53:09;5.00;;;2.80;;
9224;SDS011;4647;48.072;11.616;2023-07-20T09:55:41;7.80;;;2.97;;
9224;SDS011;4647;48.072;11.616;2023-07-20T09:58:09;6.87;;;2.83;;
9224;SDS011;4647;48.072;11.616;2023-07-20T10:00:39;4.57;;;2.60;;
9224;SDS011;4647;48.072;11.616;2023-07-20T10:03:10;3.90;;;2.77;;
9224;SDS011;4647;48.072;11.616;2023-07-20T10:05:43;3.87;;;2.73;;
9224;SDS011;4647;48.072;11.616;2023-07-20T10:08:15;9.53;;;3.10;;
9224;SDS011;4647;48.072;11.616;2023-07-20T10:10:46;4.53;;;2.70;;
9224;SDS011;4647;48.072;11.616;2023-07-20T10:13:16;5.57;;;2.80;;
9224;SDS011;4647;48.072;11.616;2023-07-20T10:15:46;4.53;;;3.10;;
9224;SDS011;4647;48.072;11.616;2023-07-20T10:18:21;5.30;;;2.87;;
9224;SDS011;4647;48.072;11.616;2023-07-20T10:20:56;4.77;;;2.67;;
9224;SDS011;4647;48.072;11.616;2023-07-20T10:23:28;7.63;;;3.20;;
9224;SDS011;4647;48.072;11.616;2023-07-20T10:25:57;4.47;;;2.67;;
9224;SDS011;4647;48.072;11.616;2023-07-20T10:28:28;4.20;;;3.20;;
9224;SDS011;4647;48.072;11.616;2023-07-20T10:30:57;3.37;;;2.70;;
9224;SDS011;4647;48.072;11.616;2023-07-20T10:33:25;3.10;;;2.80;;
9224;SDS011;4647;48.072;11.616;2023-07-20T10:35:58;4.70;;;2.70;;
9224;SDS011;4647;48.072;11.616;2023-07-20T10:38:39;3.93;;;2.90;;
9224;SDS011;4647;48.072;11.616;2023-07-20T10:41:18;4.33;;;2.83;;
9224;SDS011;4647;48.072;11.616;2023-07-20T10:43:50;5.40;;;2.50;;
9224;SDS011;4647;48.072;11.616;2023-07-20T10:49:12;6.20;;;3.00;;
9224;SDS011;4647;48.072;11.616;2023-07-20T10:51:45;5.37;;;2.90;;
9224;SDS011;4647;48.072;11.616;2023-07-20T10:59:52;4.20;;;2.80;;
9224;SDS011;4647;48.072;11.616;2023-07-20T11:02:42;5.03;;;3.03;;
9224;SDS011;4647;48.072;11.616;2023-07-20T11:08:06;7.27;;;3.50;;
9224;SDS011;4647;48.072;11.616;2023-07-20T11:10:39;5.80;;;2.83;;
9224;SDS011;4647;48.072;11.616;2023-07-20T11:13:20;3.93;;;2.77;;
9224;SDS011;4647;48.072;11.616;2023-07-20T11:16:01;5.80;;;3.17;;
9224;SDS011;4647;48.072;11.616;2023-07-20T11:18:33;5.23;;;3.00;;
9224;SDS011;4647;48.072;11.616;2023-07-20T11:21:06;5.17;;;3.20;;
9224;SDS011;4647;48.072;11.616;2023-07-20T11:23:41;6.97;;;2.93;;
9224;SDS011;4647;48.072;11.616;2023-07-20T11:26:11;3.67;;;2.80;;
9224;SDS011;4647;48.072;11.616;2023-07-20T11:28:40;5.63;;;3.10;;
9224;SDS011;4647;48.072;11.616;2023-07-20T11:31:09;6.27;;;2.93;;
9224;SDS011;4647;48.072;11.616;2023-07-20T11:33:42;5.43;;;3.10;;
9224;SDS011;4647;48.072;11.616;2023-07-20T11:36:10;6.77;;;3.37;;
9224;SDS011;4647;48.072;11.616;2023-07-20T11:38:43;5.03;;;2.53;;
9224;SDS011;4647;48.072;11.616;2023-07-20T11:41:14;4.57;;;2.73;;
9224;SDS011;4647;48.072;11.616;2023-07-20T11:43:42;4.53;;;2.90;;
9224;SDS011;4647;48.072;11.616;2023-07-20T11:46:13;7.30;;;3.37;;
9224;SDS011;4647;48.072;11.616;2023-07-20T11:48:42;8.00;;;2.90;;
9224;SDS011;4647;48.072;11.616;2023-07-20T11:51:13;7.13;;;2.73;;
9224;SDS011;4647;48.072;11.616;2023-07-20T11:53:45;5.13;;;3.27;;
9224;SDS011;4647;48.072;11.616;2023-07-20T11:56:15;5.73;;;2.73;;
9224;SDS011;4647;48.072;11.616;2023-07-20T11:58:44;4.77;;;2.87;;
9224;SDS011;4647;48.072;11.616;2023-07-20T12:01:13;4.50;;;2.90;;
9224;SDS011;4647;48.072;11.616;2023-07-20T12:03:42;7.10;;;3.07;;
9224;SDS011;4647;48.072;11.616;2023-07-20T12:06:11;4.90;;;3.00;;
9224;SDS011;4647;48.072;11.616;2023-07-20T12:08:41;5.87;;;2.80;;
9224;SDS011;4647;48.072;11.616;2023-07-20T12:11:13;5.20;;;2.83;;
9224;SDS011;4647;48.072;11.616;2023-07-20T12:13:42;4.03;;;2.93;;
9224;SDS011;4647;48.072;11.616;2023-07-20T12:16:13;6.63;;;3.60;;
9224;SDS011;4647;48.072;11.616;2023-07-20T12:18:42;6.87;;;2.80;;
9224;SDS011;4647;48.072;11.616;2023-07-20T12:21:11;7.50;;;3.10;;
9224;SDS011;4647;48.072;11.616;2023-07-20T12:23:40;6.43;;;2.60;;
9224;SDS011;4647;48.072;11.616;2023-07-20T12:26:10;5.27;;;2.90;;
9224;SDS011;4647;48.072;11.616;2023-07-20T12:28:42;3.40;;;2.70;;
9224;SDS011;4647;48.072;11.616;2023-07-20T12:31:11;4.00;;;2.63;;
9224;SDS011;4647;48.072;11.616;2023-07-20T12:33:40;4.63;;;2.73;;
9224;SDS011;4647;48.072;11.616;2023-07-20T12:36:09;7.47;;;2.50;;
9224;SDS011;4647;48.072;11.616;2023-07-20T12:38:38;4.50;;;2.80;;
9224;SDS011;4647;48.072;11.616;2023-07-20T12:41:07;3.67;;;2.93;;
9224;SDS011;4647;48.072;11.616;2023-07-20T12:43:40;6.10;;;2.80;;
9224;SDS011;4647;48.072;11.616;2023-07-20T12:46:09;5.20;;;3.00;;
9224;SDS011;4647;48.072;11.616;2023-07-20T12:48:39;5.60;;;2.97;;
9224;SDS011;4647;48.072;11.616;2023-07-20T12:51:09;4.43;;;2.63;;
9224;SDS011;4647;48.072;11.616;2023-07-20T12:53:38;5.27;;;3.00;;
9224;SDS011;4647;48.072;11.616;2023-07-20T12:56:06;5.97;;;2.87;;
9224;SDS011;4647;48.072;11.616;2023-07-20T12:58:35;5.47;;;2.80;;
9224;SDS011;4647;48.072;11.616;2023-07-20T13:01:06;3.50;;;2.70;;
9224;SDS011;4647;48.072;11.616;2023-07-20T13:03:35;6.07;;;2.77;;
9224;SDS011;4647;48.072;11.616;2023-07-20T13:06:04;2.87;;;2.57;;
9224;SDS011;4647;48.072;11.616;2023-07-20T13:08:32;5.87;;;2.90;;
9224;SDS011;4647;48.072;11.616;2023-07-20T13:11:01;3.10;;;2.60;;
9224;SDS011;4647;48.072;11.616;2023-07-20T13:13:30;5.60;;;3.10;;
9224;SDS011;4647;48.072;11.616;2023-07-20T13:15:58;9.63;;;3.30;;
9224;SDS011;4647;48.072;11.616;2023-07-20T13:18:29;4.83;;;2.67;;
9224;SDS011;4647;48.072;11.616;2023-07-20T13:20:58;4.40;;;2.60;;
9224;SDS011;4647;48.072;11.616;2023-07-20T13:23:26;5.70;;;2.67;;
9224;SDS011;4647;48.072;11.616;2023-07-20T13:25:55;5.43;;;2.90;;
9224;SDS011;4647;48.072;11.616;2023-07-20T13:28:23;3.13;;;2.80;;
9224;SDS011;4647;48.072;11.616;2023-07-20T13:30:52;3.10;;;2.83;;
9224;SDS011;4647;48.072;11.616;2023-07-20T13:33:20;3.13;;;2.77;;
9224;SDS011;4647;48.072;11.616;2023-07-20T13:35:51;3.53;;;2.70;;
9224;SDS011;4647;48.072;11.616;2023-07-20T13:38:20;3.37;;;2.60;;
9224;SDS011;4647;48.072;11.616;2023-07-20T13:40:48;2.77;;;2.50;;
9224;SDS011;4647;48.072;11.616;2023-07-20T13:43:16;4.37;;;2.80;;
9224;SDS011;4647;48.072;11.616;2023-07-20T13:45:45;4.37;;;2.53;;
9224;SDS011;4647;48.072;11.616;2023-07-20T13:48:14;3.67;;;2.37;;
9224;SDS011;4647;48.072;11.616;2023-07-20T13:50:44;4.43;;;2.70;;
9224;SDS011;4647;48.072;11.616;2023-07-20T13:53:15;7.40;;;2.67;;
9224;SDS011;4647;48.072;11.616;2023-07-20T13:55:44;5.40;;;2.60;;
9224;SDS011;4647;48.072;11.616;2023-07-20T13:58:12;4.80;;;2.40;;
9224;SDS011;4647;48.072;11.616;2023-07-20T14:00:41;7.30;;;2.90;;
9224;SDS011;4647;48.072;11.616;2023-07-20T14:03:09;5.20;;;2.53;;
9224;SDS011;4647;48.072;11.616;2023-07-20T14:05:38;3.40;;;2.60;;
9224;SDS011;4647;48.072;11.616;2023-07-20T14:08:08;3.27;;;2.83;;
9224;SDS011;4647;48.072;11.616;2023-07-20T14:10:39;5.53;;;2.47;;
9224;SDS011;4647;48.072;11.616;2023-07-20T14:13:08;4.87;;;2.53;;
9224;SDS011;4647;48.072;11.616;2023-07-20T14:15:37;4.83;;;2.50;;
9224;SDS011;4647;48.072;11.616;2023-07-20T14:18:06;3.87;;;2.70;;
9224;SDS011;4647;48.072;11.616;2023-07-20T14:20:34;3.70;;;2.47;;
9224;SDS011;4647;48.072;11.616;2023-07-20T14:23:03;4.43;;;2.60;;
9224;SDS011;4647;48.072;11.616;2023-07-20T14:25:31;5.10;;;2.60;;
9224;SDS011;4647;48.072;11.616;2023-07-20T14:28:03;4.13;;;2.73;;
9224;SDS011;4647;48.072;11.616;2023-07-20T14:30:32;6.50;;;2.87;;
9224;SDS011;4647;48.072;11.616;2023-07-20T14:33:02;4.67;;;2.53;;
9224;SDS011;4647;48.072;11.616;2023-07-20T14:35:31;4.20;;;2.63;;
9224;SDS011;4647;48.072;11.616;2023-07-20T14:37:59;2.50;;;2.30;;
9224;SDS011;4647;48.072;11.616;2023-07-20T14:40:28;3.83;;;2.60;;
9224;SDS011;4647;48.072;11.616;2023-07-20T14:42:57;4.83;;;2.60;;
9224;SDS011;4647;48.072;11.616;2023-07-20T14:45:30;6.43;;;2.67;;
9224;SDS011;4647;48.072;11.616;2023-07-20T14:47:59;4.00;;;2.40;;
9224;SDS011;4647;48.072;11.616;2023-07-20T14:50:27;3.33;;;2.80;;
9224;SDS011;4647;48.072;11.616;2023-07-20T14:52:56;4.27;;;2.87;;
9224;SDS011;4647;48.072;11.616;2023-07-20T14:55:24;3.97;;;2.40;;
9224;SDS011;4647;48.072;11.616;2023-07-20T14:57:53;4.70;;;2.70;;
9224;SDS011;4647;48.072;11.616;2023-07-20T15:00:21;4.40;;;2.70;;
9224;SDS011;4647;48.072;11.616;2023-07-20T15:02:53;4.80;;;2.60;;
9224;SDS011;4647;48.072;11.616;2023-07-20T15:05:21;7.50;;;2.73;;
9224;SDS011;4647;48.072;11.616;2023-07-20T15:07:51;4.17;;;2.70;;
9224;SDS011;4647;48.072;11.616;2023-07-20T15:10:20;4.77;;;2.73;;
9224;SDS011;4647;48.072;11.616;2023-07-20T15:12:50;7.00;;;2.60;;
9224;SDS011;4647;48.072;11.616;2023-07-20T15:15:19;4.13;;;2.60;;
9224;SDS011;4647;48.072;11.616;2023-07-20T15:17:47;9.80;;;2.73;;
9224;SDS011;4647;48.072;11.616;2023-07-20T15:20:19;5.20;;;2.80;;
9224;SDS011;4647;48.072;11.616;2023-07-20T15:22:48;7.67;;;2.80;;
9224;SDS011;4647;48.072;11.616;2023-07-20T15:25:13;4.93;;;2.70;;
9224;SDS011;4647;48.072;11.616;2023-07-20T15:27:42;3.27;;;2.70;;
9224;SDS011;4647;48.072;11.616;2023-07-20T15:30:11;4.77;;;2.60;;
9224;SDS011;4647;48.072;11.616;2023-07-20T15:32:40;5.90;;;2.83;;